Time;durP1;ratioP1;P1;durP2;ratioP2;P2;SDS_P1;SDS_P2;PMS_P1;PMS_P2;Temp;Humidity;BMP_temperature;BMP_pressure;BME280_temperature;BME280_humidity;BME280_pressure;Samples;Min_cycle;Max_cycle;Signal;HPM_P1;HPM_P2
2022/06/29 00:02:13;;;;;;;4.77;2.00;;;16.70;1.00;;;;;;5055347;28;20209;-64
2022/06/29 00:04:41;;;;;;;3.83;2.10;;;16.70;1.00;;;;;;5054996;28;20201;-64
2022/06/29 00:07:08;;;;;;;5.13;2.20;;;16.70;1.00;;;;;;5054850;28;20260;-63
2022/06/29 00:09:34;;;;;;;2.33;1.87;;;16.60;1.00;;;;;;5054682;28;20210;-63
2022/06/29 00:12:01;;;;;;;3.27;1.87;;;16.60;1.00;;;;;;5055062;28;20263;-64
2022/06/29 00:14:28;;;;;;;3.03;2.10;;;16.50;1.00;;;;;;5055155;28;20236;-64
2022/06/29 00:16:54;;;;;;;3.57;2.00;;;16.50;1.00;;;;;;5054678;28;20225;-64
2022/06/29 00:19:21;;;;;;;3.07;1.63;;;16.40;1.00;;;;;;5055393;28;20215;-64
2022/06/29 00:21:49;;;;;;;5.17;1.80;;;16.40;1.00;;;;;;5055020;28;20206;-64
2022/06/29 00:24:17;;;;;;;2.57;1.80;;;16.40;1.00;;;;;;5054682;28;20672;-64
2022/06/29 00:26:44;;;;;;;4.70;1.90;;;16.40;8.40;;;;;;5054134;28;20587;-64
2022/06/29 00:29:11;;;;;;;3.77;1.93;;;16.30;7.80;;;;;;5054749;28;20696;-63
2022/06/29 00:31:37;;;;;;;2.97;1.90;;;16.30;20.70;;;;;;5054822;28;20202;-64
2022/06/29 00:34:04;;;;;;;3.80;2.20;;;16.30;27.20;;;;;;5054649;28;20209;-64
2022/06/29 00:36:31;;;;;;;2.57;2.07;;;16.20;58.30;;;;;;5054093;28;20287;-64
2022/06/29 00:38:59;;;;;;;4.73;1.90;;;16.20;99.90;;;;;;5054231;28;20209;-63
2022/06/29 00:41:25;;;;;;;2.60;2.00;;;16.10;99.90;;;;;;5054597;28;20228;-64
2022/06/29 00:43:52;;;;;;;5.17;2.30;;;16.10;99.90;;;;;;5054271;28;20672;-64
2022/06/29 00:46:19;;;;;;;3.00;2.00;;;16.10;99.90;;;;;;5053969;28;20627;-64
2022/06/29 00:48:45;;;;;;;3.77;2.03;;;16.00;99.90;;;;;;5054496;28;20217;-63
2022/06/29 00:51:13;;;;;;;5.37;2.10;;;16.00;99.90;;;;;;5054132;28;20206;-64
2022/06/29 00:53:42;;;;;;;2.60;2.00;;;16.00;99.90;;;;;;5054102;28;20206;-64
2022/06/29 00:56:11;;;;;;;7.70;2.30;;;15.90;99.90;;;;;;5053872;28;20255;-64
2022/06/29 00:58:39;;;;;;;4.73;2.37;;;15.90;1.00;;;;;;5053611;28;20206;-64
2022/06/29 01:01:06;;;;;;;3.47;2.50;;;15.80;1.00;;;;;;5054124;28;20267;-64
2022/06/29 01:03:33;;;;;;;3.60;2.90;;;15.80;1.00;;;;;;5054174;28;20288;-64
2022/06/29 01:06:00;;;;;;;2.63;2.20;;;15.80;1.00;;;;;;5053571;28;20205;-64
2022/06/29 01:08:27;;;;;;;3.17;2.33;;;15.80;1.00;;;;;;5053704;28;20324;-64
2022/06/29 01:10:54;;;;;;;5.10;2.60;;;15.80;1.00;;;;;;5054201;28;20205;-63
2022/06/29 01:13:22;;;;;;;6.20;2.43;;;15.80;29.80;;;;;;5053483;28;20616;-64
2022/06/29 01:15:49;;;;;;;3.50;2.57;;;15.80;99.90;;;;;;5054198;28;20266;-64
2022/06/29 01:18:15;;;;;;;2.37;2.17;;;15.90;99.90;;;;;;5053556;28;20665;-64
2022/06/29 01:20:42;;;;;;;2.97;2.43;;;15.90;99.90;;;;;;5053637;28;20618;-63
2022/06/29 01:23:10;;;;;;;5.03;2.30;;;15.90;99.90;;;;;;5053860;28;20202;-64
2022/06/29 01:25:37;;;;;;;5.17;1.90;;;15.80;99.90;;;;;;5053569;28;20212;-64
2022/06/29 01:28:04;;;;;;;3.63;2.23;;;15.90;99.90;;;;;;5053654;28;20582;-63
2022/06/29 01:30:31;;;;;;;3.83;2.23;;;15.90;99.90;;;;;;5053619;28;20255;-64
2022/06/29 01:32:58;;;;;;;3.50;2.10;;;15.90;99.90;;;;;;5053693;28;20205;-64
2022/06/29 01:35:24;;;;;;;3.03;2.03;;;15.90;99.90;;;;;;5053308;28;20265;-63
2022/06/29 01:37:51;;;;;;;2.93;2.20;;;15.90;99.90;;;;;;5053144;28;20226;-64
2022/06/29 01:40:19;;;;;;;3.87;1.90;;;15.90;99.90;;;;;;5053378;28;20235;-64
2022/06/29 01:42:46;;;;;;;4.57;2.13;;;15.90;99.90;;;;;;5053349;28;20222;-64
2022/06/29 01:45:12;;;;;;;4.50;2.27;;;16.00;99.90;;;;;;5053345;28;20741;-64
2022/06/29 01:47:39;;;;;;;4.87;3.07;;;16.00;99.90;;;;;;5052514;28;20654;-64
2022/06/29 01:50:06;;;;;;;4.50;2.47;;;16.10;99.90;;;;;;5053454;28;20221;-64
2022/06/29 01:52:33;;;;;;;4.00;2.60;;;16.10;99.90;;;;;;5053024;28;20509;-64
2022/06/29 01:55:00;;;;;;;5.27;2.87;;;16.10;99.90;;;;;;5053436;28;20627;-63
2022/06/29 01:57:28;;;;;;;4.53;2.97;;;16.00;99.90;;;;;;5052757;28;20225;-64
2022/06/29 01:59:54;;;;;;;6.57;2.80;;;16.00;99.90;;;;;;5052705;28;20209;-64
2022/06/29 02:02:21;;;;;;;7.00;2.93;;;16.00;99.90;;;;;;5052967;28;20238;-64
2022/06/29 02:04:48;;;;;;;10.20;3.07;;;16.00;99.90;;;;;;5053070;28;20214;-63
2022/06/29 02:07:14;;;;;;;4.17;2.83;;;16.10;1.00;;;;;;5052614;28;20257;-64
2022/06/29 02:09:41;;;;;;;3.47;2.50;;;16.00;1.00;;;;;;5051935;28;20218;-63
2022/06/29 02:12:08;;;;;;;3.90;2.40;;;16.00;1.00;;;;;;5052824;28;20211;-63
2022/06/29 02:14:36;;;;;;;4.97;3.03;;;16.00;1.00;;;;;;5052843;28;20741;-64
2022/06/29 02:17:03;;;;;;;5.80;2.70;;;16.00;20.40;;;;;;5052097;28;21000;-64
2022/06/29 02:19:30;;;;;;;5.50;2.80;;;15.90;29.20;;;;;;5053016;28;20259;-64
2022/06/29 02:21:57;;;;;;;6.27;2.60;;;15.90;99.90;;;;;;5052685;28;20622;-64
2022/06/29 02:24:23;;;;;;;5.47;3.37;;;15.90;99.90;;;;;;5052614;28;20757;-63
2022/06/29 02:26:50;;;;;;;5.90;3.20;;;15.90;99.90;;;;;;5052007;28;20229;-64
2022/06/29 02:29:17;;;;;;;6.13;3.20;;;15.90;99.90;;;;;;5052532;28;20263;-64
2022/06/29 02:34:44;;;;;;;4.70;3.00;;;16.00;99.90;;;;;;5052503;28;20201;-64
2022/06/29 02:37:11;;;;;;;7.50;3.43;;;16.00;99.90;;;;;;5052124;28;20295;-64
2022/06/29 02:39:38;;;;;;;7.53;3.30;;;16.00;99.90;;;;;;5052377;28;20205;-64
2022/06/29 02:42:05;;;;;;;5.17;3.53;;;16.00;1.00;;;;;;5052195;28;20288;-64
2022/06/29 02:44:32;;;;;;;5.00;3.33;;;16.00;1.00;;;;;;5052128;28;20678;-64
2022/06/29 02:47:00;;;;;;;6.23;3.67;;;15.90;99.90;;;;;;5052062;28;20279;-64
2022/06/29 02:49:26;;;;;;;6.03;3.47;;;15.90;99.90;;;;;;5052071;28;20692;-64
2022/06/29 02:51:53;;;;;;;7.43;3.07;;;15.90;99.90;;;;;;5052101;28;20255;-64
2022/06/29 02:54:20;;;;;;;4.07;3.07;;;16.00;99.90;;;;;;5051981;28;20687;-64
2022/06/29 02:56:47;;;;;;;5.33;3.33;;;15.90;99.90;;;;;;5051489;28;20233;-64
2022/06/29 02:59:13;;;;;;;5.50;2.90;;;15.90;99.90;;;;;;5052301;28;20205;-64
2022/06/29 03:01:40;;;;;;;6.53;3.53;;;15.90;99.90;;;;;;5052047;28;20202;-64
2022/06/29 03:04:08;;;;;;;5.37;3.00;;;15.90;99.90;;;;;;5052135;28;20676;-64
2022/06/29 03:06:35;;;;;;;5.07;3.57;;;15.90;99.90;;;;;;5051436;28;20225;-64
2022/06/29 03:09:02;;;;;;;4.80;2.97;;;15.90;1.00;;;;;;5051743;28;20226;-64
2022/06/29 03:11:29;;;;;;;5.17;2.60;;;15.90;1.00;;;;;;5051889;28;20216;-64
2022/06/29 03:13:56;;;;;;;3.57;2.90;;;15.90;1.00;;;;;;5052071;28;20202;-64
2022/06/29 03:16:23;;;;;;;4.50;2.87;;;15.90;1.00;;;;;;5051588;28;20234;-64
2022/06/29 03:18:50;;;;;;;5.37;3.20;;;16.00;99.90;;;;;;5051875;28;20278;-64
2022/06/29 03:21:18;;;;;;;4.43;2.70;;;16.00;99.90;;;;;;5051591;28;20255;-64
2022/06/29 03:23:45;;;;;;;6.87;2.90;;;16.00;99.90;;;;;;5051590;28;20605;-64
2022/06/29 03:26:12;;;;;;;5.47;2.90;;;16.00;99.90;;;;;;5051429;28;20221;-64
2022/06/29 03:28:39;;;;;;;4.63;2.90;;;16.00;99.90;;;;;;5051693;28;20221;-64
2022/06/29 03:31:06;;;;;;;5.27;3.20;;;16.00;99.90;;;;;;5051755;28;20202;-64
2022/06/29 03:33:33;;;;;;;3.67;2.90;;;15.90;99.90;;;;;;5051640;28;20212;-64
2022/06/29 03:35:59;;;;;;;4.07;3.10;;;15.80;99.90;;;;;;5051087;28;20251;-64
2022/06/29 03:38:27;;;;;;;4.63;3.37;;;15.80;99.90;;;;;;5051425;28;20742;-65
2022/06/29 03:40:54;;;;;;;5.33;3.20;;;15.80;99.90;;;;;;5051529;28;20286;-64
2022/06/29 03:43:21;;;;;;;5.43;3.27;;;15.80;99.90;;;;;;5051801;28;20206;-64
2022/06/29 03:45:47;;;;;;;3.83;2.70;;;15.80;99.90;;;;;;5051392;28;20259;-64
2022/06/29 03:48:15;;;;;;;5.63;3.43;;;15.80;99.90;;;;;;5051169;28;20234;-66
2022/06/29 03:50:42;;;;;;;7.03;3.13;;;15.80;99.90;;;;;;5051136;28;20739;-65
2022/06/29 03:53:08;;;;;;;5.27;3.40;;;15.80;99.90;;;;;;5051452;28;20259;-64
2022/06/29 03:55:36;;;;;;;5.67;3.53;;;15.80;99.90;;;;;;5051440;28;20264;-64
2022/06/29 03:58:03;;;;;;;18.97;10.93;;;15.80;1.00;;;;;;5050972;28;20275;-64
2022/06/29 04:00:30;;;;;;;7.93;4.10;;;15.80;69.40;;;;;;5051364;28;20206;-64
2022/06/29 04:02:56;;;;;;;7.23;3.50;;;15.80;1.00;;;;;;5051160;28;20279;-64
2022/06/29 04:05:23;;;;;;;10.33;4.03;;;15.70;99.90;;;;;;5051325;28;20213;-64
2022/06/29 04:07:50;;;;;;;7.13;4.03;;;15.70;99.90;;;;;;5050161;28;20659;-64
2022/06/29 04:10:17;;;;;;;8.57;3.83;;;15.60;1.00;;;;;;5049597;28;20564;-64
2022/06/29 04:12:45;;;;;;;7.10;3.73;;;15.70;7.00;;;;;;5049605;28;20209;-61
2022/06/29 04:15:12;;;;;;;5.47;3.77;;;15.70;99.90;;;;;;5047964;28;20214;-62
2022/06/29 04:17:38;;;;;;;6.10;3.67;;;15.80;99.90;;;;;;5048893;28;20237;-61
2022/06/29 04:20:06;;;;;;;5.50;3.70;;;15.80;99.90;;;;;;5048976;28;20217;-62
2022/06/29 04:22:33;;;;;;;8.00;3.83;;;15.80;99.90;;;;;;5049602;28;20255;-62
2022/06/29 04:25:00;;;;;;;4.00;3.50;;;15.90;32.20;;;;;;5040077;28;20261;-63
2022/06/29 04:27:27;;;;;;;5.37;3.27;;;16.00;33.70;;;;;;5044914;28;20225;-63
2022/06/29 04:29:55;;;;;;;5.20;3.33;;;16.10;99.90;;;;;;5048927;28;20213;-62
2022/06/29 04:32:21;;;;;;;4.63;3.50;;;16.20;99.90;;;;;;5049846;28;20676;-62
2022/06/29 04:34:48;;;;;;;5.50;3.50;;;16.30;99.90;;;;;;5054637;28;20263;-62
2022/06/29 04:37:15;;;;;;;7.67;3.27;;;16.40;99.90;;;;;;5053967;28;20230;-61
2022/06/29 04:39:42;;;;;;;4.73;2.93;;;16.50;99.90;;;;;;5054228;28;20198;-62
2022/06/29 04:42:08;;;;;;;4.10;3.10;;;16.70;99.90;;;;;;5054363;28;20228;-61
2022/06/29 04:44:35;;;;;;;4.87;3.07;;;16.80;99.90;;;;;;5054095;28;20255;-62
2022/06/29 04:47:03;;;;;;;7.63;3.00;;;16.90;99.90;;;;;;5053816;28;20237;-62
2022/06/29 04:49:30;;;;;;;6.13;2.93;;;17.00;99.90;;;;;;5053588;28;20225;-62
2022/06/29 04:51:57;;;;;;;4.23;2.80;;;17.10;99.90;;;;;;5054482;28;20205;-61
2022/06/29 04:54:23;;;;;;;4.87;3.20;;;17.30;1.00;;;;;;5054039;28;20206;-62
2022/06/29 04:56:50;;;;;;;4.00;2.97;;;17.40;1.00;;;;;;5053700;28;20233;-61
2022/06/29 04:59:18;;;;;;;5.70;3.03;;;17.50;99.90;;;;;;5054139;28;20205;-62
2022/06/29 05:01:47;;;;;;;5.07;3.00;;;17.70;99.90;;;;;;5053914;28;20213;-61
2022/06/29 05:04:15;;;;;;;4.10;3.07;;;17.80;99.90;;;;;;5053982;28;20688;-62
2022/06/29 05:06:42;;;;;;;4.73;3.13;;;17.80;99.90;;;;;;5053170;28;20775;-61
2022/06/29 05:09:09;;;;;;;7.30;3.43;;;17.80;1.00;;;;;;5053611;28;20731;-62
2022/06/29 05:11:35;;;;;;;5.27;3.37;;;17.80;1.00;;;;;;5053872;28;20295;-61
2022/06/29 05:14:02;;;;;;;7.13;3.60;;;17.80;99.90;;;;;;5053172;28;20225;-61
2022/06/29 05:16:29;;;;;;;5.00;3.00;;;17.80;1.00;;;;;;5053608;28;20230;-61
2022/06/29 05:18:55;;;;;;;9.43;3.33;;;17.90;1.00;;;;;;5048677;28;20576;-67
2022/06/29 05:21:23;;;;;;;4.80;3.20;;;18.00;1.00;;;;;;5051520;28;20279;-67
2022/06/29 05:23:50;;;;;;;5.77;3.40;;;18.10;99.90;;;;;;5053251;28;20214;-67
2022/06/29 05:26:17;;;;;;;8.57;3.43;;;18.20;99.90;;;;;;5052335;28;20226;-68
2022/06/29 05:28:43;;;;;;;3.97;2.70;;;18.20;99.90;;;;;;5052570;28;20957;-71
2022/06/29 05:31:10;;;;;;;7.37;3.40;;;18.30;1.00;;;;;;5052876;28;20209;-68
2022/06/29 05:33:37;;;;;;;6.57;3.23;;;18.30;1.00;;;;;;5053076;28;20206;-69
2022/06/29 05:36:05;;;;;;;6.33;3.30;;;18.40;1.00;;;;;;5052405;28;20202;-69
2022/06/29 05:38:34;;;;;;;9.10;3.10;;;18.30;1.00;;;;;;5052799;28;20198;-65
2022/06/29 05:41:01;;;;;;;10.00;3.67;;;18.50;1.00;;;;;;5052496;28;20589;-65
2022/06/29 05:43:28;;;;;;;9.00;4.00;;;18.50;1.00;;;;;;5052187;28;20297;-64
2022/06/29 05:45:54;;;;;;;7.13;3.67;;;18.60;1.00;;;;;;5052465;28;20236;-65
2022/06/29 05:48:21;;;;;;;7.20;4.03;;;18.70;1.00;;;;;;5052435;28;20279;-64
2022/06/29 05:50:48;;;;;;;7.10;3.70;;;18.70;1.00;;;;;;5052486;28;20214;-64
2022/06/29 05:53:16;;;;;;;5.77;3.70;;;18.80;1.00;;;;;;5052285;28;20297;-64
2022/06/29 05:55:44;;;;;;;8.87;3.50;;;18.80;1.00;;;;;;5051476;28;20209;-64
2022/06/29 05:58:15;;;;;;;7.33;3.50;;;18.80;99.90;;;;;;5052452;28;20635;-64
2022/06/29 06:00:42;;;;;;;7.30;3.50;;;18.80;1.00;;;;;;5052059;28;20232;-64
2022/06/29 06:03:09;;;;;;;6.90;3.77;;;18.80;1.00;;;;;;5052271;28;20256;-64
2022/06/29 06:05:35;;;;;;;6.60;4.13;;;18.80;1.00;;;;;;5052533;28;20213;-64
2022/06/29 06:08:02;;;;;;;9.20;4.77;;;18.80;1.00;;;;;;5051242;28;20233;-65
2022/06/29 06:10:29;;;;;;;7.90;4.87;;;18.80;1.00;;;;;;5052064;28;20210;-65
2022/06/29 06:12:57;;;;;;;12.70;5.50;;;18.80;1.00;;;;;;5051195;28;20216;-64
2022/06/29 06:15:24;;;;;;;7.73;4.37;;;18.80;1.00;;;;;;5052287;28;20213;-64
2022/06/29 06:17:50;;;;;;;5.37;3.23;;;18.90;1.00;;;;;;5051474;28;20245;-65
2022/06/29 06:20:17;;;;;;;7.40;3.23;;;19.10;1.00;;;;;;5051460;28;20217;-64
2022/06/29 06:22:44;;;;;;;4.73;2.87;;;19.30;1.00;;;;;;5051752;28;20750;-64
2022/06/29 06:25:10;;;;;;;7.77;3.43;;;19.40;1.00;;;;;;5051497;28;20209;-66
2022/06/29 06:27:37;;;;;;;5.73;3.20;;;19.60;1.00;;;;;;5051431;28;20602;-65
2022/06/29 06:30:06;;;;;;;8.63;2.80;;;19.80;99.90;;;;;;5051411;28;20230;-65
2022/06/29 06:32:33;;;;;;;5.37;2.97;;;19.80;99.90;;;;;;5051814;28;20214;-65
2022/06/29 06:35:00;;;;;;;6.90;3.10;;;20.00;99.90;;;;;;5051826;28;20205;-65
2022/06/29 06:37:26;;;;;;;5.40;2.67;;;20.20;1.00;;;;;;5050707;28;20225;-66
2022/06/29 06:42:37;;;;;;;4.87;2.70;;;20.40;99.90;;;;;;5051185;28;20204;-66
2022/06/29 06:45:07;;;;;;;8.00;2.90;;;20.40;99.90;;;;;;5051966;28;20305;-66
2022/06/29 06:47:33;;;;;;;6.43;2.60;;;20.50;99.90;;;;;;5051720;28;20233;-65
2022/06/29 06:50:00;;;;;;;5.73;2.50;;;20.60;99.90;;;;;;5051102;28;20308;-65
2022/06/29 06:52:27;;;;;;;3.70;2.10;;;20.70;99.90;;;;;;5051430;28;20205;-65
2022/06/29 06:54:53;;;;;;;4.27;1.83;;;20.70;99.90;;;;;;5051272;28;20251;-65
2022/06/29 06:57:20;;;;;;;3.60;2.30;;;20.90;99.90;;;;;;5050512;28;20305;-65
2022/06/29 06:59:47;;;;;;;3.00;2.20;;;20.90;99.90;;;;;;5051437;28;20206;-64
2022/06/29 07:02:15;;;;;;;6.87;2.30;;;21.00;99.90;;;;;;5050584;28;20296;-65
2022/06/29 07:04:46;;;;;;;5.47;2.07;;;21.10;99.90;;;;;;5051167;28;20275;-65
2022/06/29 07:07:13;;;;;;;4.10;2.40;;;21.00;99.90;;;;;;5050479;28;20229;-66
2022/06/29 07:09:40;;;;;;;3.40;2.20;;;21.00;99.90;;;;;;5051417;28;20233;-66
2022/06/29 07:12:07;;;;;;;3.03;2.00;;;21.00;99.90;;;;;;5050667;28;20205;-64
2022/06/29 07:14:34;;;;;;;5.17;2.20;;;21.10;99.90;;;;;;5050735;28;20259;-69
2022/06/29 07:17:01;;;;;;;4.13;2.00;;;21.10;99.90;;;;;;5050863;28;20309;-67
2022/06/29 07:19:29;;;;;;;4.03;2.33;;;21.20;99.90;;;;;;5052662;28;20201;-68
2022/06/29 07:21:55;;;;;;;3.17;2.37;;;21.20;99.90;;;;;;5052838;28;20621;-69
2022/06/29 07:24:22;;;;;;;6.63;2.70;;;21.30;99.90;;;;;;5051672;28;20643;-70
2022/06/29 07:26:49;;;;;;;3.60;2.17;;;21.40;99.90;;;;;;5050472;28;20290;-67
2022/06/29 07:29:15;;;;;;;3.90;2.30;;;21.40;99.90;;;;;;5050907;28;20222;-68
2022/06/29 07:31:42;;;;;;;7.90;3.27;;;21.50;99.90;;;;;;5050647;28;20209;-71
2022/06/29 07:34:09;;;;;;;4.53;2.80;;;21.50;99.90;;;;;;5050690;28;20201;-68
2022/06/29 07:36:37;;;;;;;6.53;2.93;;;21.50;99.90;;;;;;5050050;28;20222;-65
2022/06/29 07:39:04;;;;;;;6.57;2.63;;;21.50;99.90;;;;;;5051168;28;20248;-65
2022/06/29 07:41:30;;;;;;;10.27;2.80;;;21.50;99.90;;;;;;5050625;28;20259;-65
2022/06/29 07:43:57;;;;;;;4.93;2.60;;;21.40;99.90;;;;;;5049921;28;20541;-64
2022/06/29 07:46:24;;;;;;;6.47;2.83;;;21.50;99.90;;;;;;5050437;28;20229;-63
2022/06/29 07:48:50;;;;;;;4.40;2.70;;;21.50;99.90;;;;;;5050157;28;20707;-70
2022/06/29 07:51:17;;;;;;;9.33;2.70;;;21.40;99.90;;;;;;5052252;28;20235;-67
2022/06/29 07:53:45;;;;;;;8.30;2.80;;;21.30;99.90;;;;;;5050753;28;20266;-66
2022/06/29 07:56:12;;;;;;;5.53;2.50;;;21.20;99.90;;;;;;5050235;28;20210;-71
2022/06/29 07:58:39;;;;;;;4.53;2.53;;;21.40;99.90;;;;;;5050811;28;20210;-69
2022/06/29 08:01:06;;;;;;;3.90;2.40;;;21.40;99.90;;;;;;5050263;28;20296;-67
2022/06/29 08:03:32;;;;;;;7.00;2.23;;;21.30;99.90;;;;;;5052071;28;20236;-66
2022/06/29 08:05:59;;;;;;;4.00;2.10;;;21.30;99.90;;;;;;5053932;28;20263;-67
2022/06/29 08:08:26;;;;;;;7.63;2.87;;;21.50;99.90;;;;;;5055418;28;20210;-66
2022/06/29 08:10:54;;;;;;;3.43;2.40;;;21.60;99.90;;;;;;5054886;28;20616;-64
2022/06/29 08:13:21;;;;;;;3.93;2.37;;;21.70;99.90;;;;;;5054293;28;20205;-65
2022/06/29 08:15:47;;;;;;;3.80;2.10;;;21.90;99.90;;;;;;5054263;28;20623;-65
2022/06/29 08:18:14;;;;;;;3.63;2.40;;;21.90;99.90;;;;;;5053646;28;20735;-65
2022/06/29 08:20:41;;;;;;;3.97;2.40;;;22.00;99.90;;;;;;5054995;28;20259;-66
2022/06/29 08:23:08;;;;;;;4.57;2.33;;;22.00;99.90;;;;;;5060039;28;20627;-64
2022/06/29 08:25:35;;;;;;;5.27;2.20;;;22.10;99.90;;;;;;5056999;28;20205;-67
2022/06/29 08:28:05;;;;;;;3.47;2.10;;;21.90;99.90;;;;;;5056888;28;20233;-67
2022/06/29 08:30:33;;;;;;;3.40;2.30;;;22.00;99.90;;;;;;5055163;28;20275;-64
2022/06/29 08:33:00;;;;;;;4.47;2.40;;;22.00;99.90;;;;;;5055255;28;20209;-67
2022/06/29 08:35:27;;;;;;;3.43;2.03;;;22.10;99.90;;;;;;5056472;28;20380;-63
2022/06/29 08:37:53;;;;;;;3.90;2.60;;;22.10;99.90;;;;;;5053049;28;20541;-65
2022/06/29 08:40:20;;;;;;;6.47;2.50;;;22.00;99.90;;;;;;5053179;28;20206;-64
2022/06/29 08:42:48;;;;;;;3.90;2.53;;;21.90;99.90;;;;;;5053072;28;20210;-64
2022/06/29 08:45:17;;;;;;;3.40;2.60;;;22.00;99.90;;;;;;5054241;28;20206;-64
2022/06/29 08:47:44;;;;;;;6.67;2.70;;;22.10;99.90;;;;;;5053349;28;20241;-65
2022/06/29 08:50:12;;;;;;;4.43;2.53;;;22.10;99.90;;;;;;5055690;28;20226;-68
2022/06/29 08:52:40;;;;;;;3.83;2.37;;;22.10;99.90;;;;;;5054657;28;20263;-68
2022/06/29 08:55:09;;;;;;;5.83;2.73;;;22.20;99.90;;;;;;5053109;28;20304;-64
2022/06/29 08:57:36;;;;;;;4.50;2.80;;;22.20;99.90;;;;;;5053141;28;20312;-67
2022/06/29 09:00:05;;;;;;;7.57;2.83;;;22.10;99.90;;;;;;5056094;28;20369;-68
2022/06/29 09:02:33;;;;;;;6.23;2.77;;;21.90;99.90;;;;;;5054754;28;20260;-69
2022/06/29 09:05:00;;;;;;;5.60;3.10;;;21.80;99.90;;;;;;5058312;28;20206;-67
2022/06/29 09:07:27;;;;;;;6.53;2.80;;;21.90;99.90;;;;;;5054708;28;20222;-67
2022/06/29 09:10:06;;;;;;;4.27;2.67;;;22.00;99.90;;;;;;5054052;28;20727;-65
2022/06/29 09:12:33;;;;;;;7.07;2.90;;;22.00;99.90;;;;;;5055317;28;20213;-66
2022/06/29 09:14:59;;;;;;;6.17;3.07;;;22.10;99.90;;;;;;5056235;28;20210;-63
2022/06/29 09:17:26;;;;;;;5.43;3.33;;;22.30;99.90;;;;;;5055548;28;20781;-65
2022/06/29 09:19:54;;;;;;;5.10;2.90;;;22.40;99.90;;;;;;5052454;28;20208;-66
2022/06/29 09:22:21;;;;;;;6.10;2.50;;;22.30;99.90;;;;;;5054542;28;20252;-64
2022/06/29 09:24:49;;;;;;;5.87;3.10;;;22.20;99.90;;;;;;5052594;28;20279;-64
2022/06/29 09:27:16;;;;;;;4.77;2.70;;;22.10;99.90;;;;;;5052265;28;20225;-64
2022/06/29 09:29:44;;;;;;;5.97;3.10;;;22.30;99.90;;;;;;5055287;28;20285;-69
2022/06/29 09:32:16;;;;;;;4.77;3.10;;;22.50;99.90;;;;;;5052617;28;20228;-68
2022/06/29 09:34:45;;;;;;;8.03;3.30;;;22.20;99.90;;;;;;5059577;28;20221;-67
2022/06/29 09:37:15;;;;;;;5.83;3.10;;;22.10;99.90;;;;;;5053268;28;20731;-66
2022/06/29 09:39:44;;;;;;;7.83;3.23;;;22.30;99.90;;;;;;5052921;28;20202;-68
2022/06/29 09:42:12;;;;;;;5.30;3.20;;;22.20;99.90;;;;;;5055936;28;20209;-67
2022/06/29 09:44:39;;;;;;;6.47;3.30;;;22.30;99.90;;;;;;5053613;28;20205;-65
2022/06/29 09:47:08;;;;;;;5.93;3.20;;;22.40;99.90;;;;;;5052495;28;20260;-65
2022/06/29 09:49:37;;;;;;;6.47;2.97;;;22.50;99.90;;;;;;5054414;28;20233;-66
2022/06/29 09:52:05;;;;;;;4.53;2.70;;;22.50;99.90;;;;;;5052825;28;20241;-65
2022/06/29 09:54:38;;;;;;;4.13;2.63;;;22.50;99.90;;;;;;5052557;28;20213;-67
2022/06/29 09:57:06;;;;;;;5.93;3.07;;;22.60;99.90;;;;;;5052366;28;20282;-67
2022/06/29 10:02:37;;;;;;;4.87;2.90;;;22.60;99.90;;;;;;5052077;28;20209;-67
2022/06/29 10:05:07;;;;;;;6.37;3.67;;;22.70;99.90;;;;;;5052822;28;20213;-68
2022/06/29 10:07:36;;;;;;;6.03;3.20;;;22.80;99.90;;;;;;5051922;28;20712;-66
2022/06/29 10:10:07;;;;;;;4.80;2.93;;;22.60;99.90;;;;;;5053028;28;20316;-65
2022/06/29 10:16:05;;;;;;;5.27;3.03;;;22.80;99.90;;;;;;5051906;28;20236;-67
2022/06/29 10:18:46;;;;;;;4.13;3.33;;;22.80;99.90;;;;;;5052375;28;20263;-66
2022/06/29 10:21:15;;;;;;;4.63;2.47;;;22.80;99.90;;;;;;5051918;28;20206;-64
2022/06/29 10:23:49;;;;;;;5.07;2.50;;;22.80;99.90;;;;;;5052210;28;20581;-65
2022/06/29 10:26:45;;;;;;;4.97;2.97;;;22.90;99.90;;;;;;5051706;28;20229;-65
2022/06/29 10:29:34;;;;;;;7.30;3.00;;;23.00;99.90;;;;;;5054021;28;20209;-65
2022/06/29 10:32:17;;;;;;;8.63;4.57;;;23.00;99.90;;;;;;5050433;28;20206;-65
2022/06/29 10:37:32;;;;;;;4.00;2.93;;;23.60;99.90;;;;;;5053206;28;20764;-68
2022/06/29 10:40:04;;;;;;;6.53;4.70;;;23.60;99.90;;;;;;5061324;28;20209;-66
2022/06/29 10:45:33;;;;;;;4.07;3.10;;;23.70;99.90;;;;;;5051925;28;20213;-65
2022/06/29 10:48:24;;;;;;;15.17;7.77;;;23.80;99.90;;;;;;5051970;28;20715;-65
2022/06/29 10:50:51;;;;;;;7.70;4.90;;;23.90;99.90;;;;;;5051081;28;20664;-66
2022/06/29 10:53:22;;;;;;;5.20;3.00;;;24.10;99.90;;;;;;5051876;28;20308;-65
2022/06/29 10:55:54;;;;;;;3.63;2.73;;;24.20;99.90;;;;;;5052429;28;20267;-68
2022/06/29 10:58:23;;;;;;;4.30;2.70;;;24.00;99.90;;;;;;5052688;28;20264;-67
2022/06/29 11:00:52;;;;;;;5.43;3.10;;;24.10;99.90;;;;;;5051263;28;20252;-67
2022/06/29 11:03:20;;;;;;;2.90;2.60;;;23.80;99.90;;;;;;5051737;28;20209;-67
2022/06/29 11:15:39;;;;;;;5.50;2.87;;;24.00;99.90;;;;;;5035746;28;20252;-66
2022/06/29 11:16:55;;;;;;;5.17;2.80;;;24.10;99.90;;;;;;5035689;28;20233;-67
2022/06/29 11:19:29;;;;;;;8.87;3.13;;;24.20;99.90;;;;;;5035336;28;20293;-67
2022/06/29 11:22:15;;;;;;;3.60;2.70;;;24.30;99.90;;;;;;5054881;28;20248;-67
2022/06/29 11:24:55;;;;;;;3.80;3.00;;;24.40;99.90;;;;;;5056560;28;20201;-64
2022/06/29 11:27:35;;;;;;;5.73;2.90;;;24.30;99.90;;;;;;5056687;28;20808;-67
2022/06/29 11:30:04;;;;;;;7.23;3.20;;;24.20;99.90;;;;;;5059860;28;20233;-67
2022/06/29 11:32:39;;;;;;;4.07;3.30;;;24.10;99.90;;;;;;5055271;28;20209;-67
2022/06/29 11:35:07;;;;;;;5.50;4.03;;;24.00;99.90;;;;;;5056865;28;20299;-67
2022/06/29 11:37:34;;;;;;;3.80;3.20;;;24.20;99.90;;;;;;5051045;28;20225;-65
2022/06/29 11:40:01;;;;;;;7.23;3.10;;;24.30;99.90;;;;;;5050419;28;20210;-65
2022/06/29 11:45:18;;;;;;;12.97;4.73;;;24.60;99.90;;;;;;5055337;28;20722;-65
2022/06/29 11:47:54;;;;;;;13.37;4.80;;;24.60;99.90;;;;;;5055141;28;20278;-64
2022/06/29 11:50:22;;;;;;;14.40;3.80;;;24.70;99.90;;;;;;5054867;28;20229;-65
2022/06/29 11:52:51;;;;;;;7.23;3.87;;;24.90;99.90;;;;;;5055147;28;20217;-67
2022/06/29 11:55:39;;;;;;;8.57;4.00;;;24.90;99.90;;;;;;5054844;28;20206;-68
2022/06/29 11:58:06;;;;;;;7.90;3.40;;;25.00;99.90;;;;;;5055547;28;20221;-67
2022/06/29 12:00:38;;;;;;;8.90;4.03;;;25.00;99.90;;;;;;5054816;28;20205;-67
2022/06/29 12:03:05;;;;;;;5.17;3.30;;;24.80;99.90;;;;;;5054654;28;20588;-67
2022/06/29 12:05:31;;;;;;;7.13;3.40;;;24.60;99.90;;;;;;5054225;28;20248;-69
2022/06/29 12:07:58;;;;;;;4.57;3.20;;;24.60;99.90;;;;;;5053815;28;20275;-69
2022/06/29 12:10:25;;;;;;;11.00;3.33;;;24.40;99.90;;;;;;5054459;28;20221;-71
2022/06/29 12:12:51;;;;;;;6.47;3.63;;;24.40;99.90;;;;;;5053966;28;20209;-69
2022/06/29 12:15:18;;;;;;;7.90;3.40;;;24.50;99.90;;;;;;5054672;28;20212;-70
2022/06/29 12:17:46;;;;;;;19.47;4.10;;;24.40;99.90;;;;;;5054082;28;20240;-64
2022/06/29 12:20:13;;;;;;;5.33;3.33;;;24.20;99.90;;;;;;5053905;28;20197;-64
2022/06/29 12:22:40;;;;;;;6.93;3.90;;;24.20;99.90;;;;;;5054149;28;20210;-64
2022/06/29 12:25:07;;;;;;;5.93;3.43;;;24.20;99.90;;;;;;5053551;28;20209;-64
2022/06/29 12:27:36;;;;;;;7.40;3.47;;;24.30;99.90;;;;;;5054143;28;20229;-65
2022/06/29 12:30:04;;;;;;;6.80;3.30;;;24.20;99.90;;;;;;5054424;28;20229;-64
2022/06/29 12:32:31;;;;;;;4.27;3.43;;;23.90;99.90;;;;;;5054102;28;20209;-64
2022/06/29 12:34:58;;;;;;;18.83;4.53;;;24.10;99.90;;;;;;5054057;28;20296;-64
2022/06/29 12:37:25;;;;;;;5.23;3.47;;;23.80;99.90;;;;;;5053525;28;20275;-63
2022/06/29 12:39:52;;;;;;;5.27;3.40;;;23.90;99.90;;;;;;5053731;28;20239;-64
2022/06/29 12:42:19;;;;;;;4.30;3.50;;;24.00;99.90;;;;;;5054010;28;20305;-63
2022/06/29 12:44:45;;;;;;;4.90;3.23;;;24.00;99.90;;;;;;5053888;28;20296;-64
2022/06/29 12:47:12;;;;;;;6.77;4.23;;;24.10;99.90;;;;;;5053783;28;20257;-64
2022/06/29 12:49:39;;;;;;;8.33;4.30;;;24.20;99.90;;;;;;5053458;28;20206;-64
2022/06/29 12:52:07;;;;;;;6.13;3.63;;;24.40;99.90;;;;;;5053449;28;20285;-64
2022/06/29 12:54:34;;;;;;;5.10;3.13;;;24.60;99.90;;;;;;5052141;28;20236;-67
2022/06/29 12:57:01;;;;;;;4.03;3.03;;;24.70;99.90;;;;;;5053162;28;20229;-65
2022/06/29 12:59:27;;;;;;;4.80;2.80;;;24.90;99.90;;;;;;5036512;28;20202;-66
2022/06/29 13:01:54;;;;;;;5.27;2.73;;;25.20;99.90;;;;;;5033134;28;20205;-66
2022/06/29 13:04:21;;;;;;;5.77;2.93;;;25.50;99.90;;;;;;5033742;28;20257;-66
2022/06/29 13:06:48;;;;;;;4.73;3.00;;;25.70;99.90;;;;;;5033044;28;20644;-66
2022/06/29 13:09:16;;;;;;;4.90;2.80;;;25.90;99.90;;;;;;5033659;28;20615;-65
2022/06/29 13:11:42;;;;;;;3.00;2.53;;;25.90;99.90;;;;;;5033433;28;20233;-65
2022/06/29 13:14:09;;;;;;;3.50;2.73;;;26.20;99.90;;;;;;5033334;28;20611;-65
2022/06/29 13:16:36;;;;;;;3.33;2.60;;;26.40;99.90;;;;;;5033126;28;20226;-64
2022/06/29 13:19:03;;;;;;;3.70;2.93;;;26.40;99.90;;;;;;5033182;28;20681;-64
2022/06/29 13:21:30;;;;;;;4.67;2.73;;;26.20;99.90;;;;;;5032884;28;20688;-65